EmailTwitter


Surface observations / France / LFBO (07630)

Regions: Quebec | Canada | USA | Europe | France | UK | Elsewhere
Station
Display
Info & Location for LFBO (07630) | Help decoding METAR

Weather Conditions observed on 2018/05/26 at 08:00 UTC at TOULOUSE/BLAGNAC, FR (LFBO)

Temperature: 22.0 Celsius.

Dewpoint: 14.0 Celsius.

Relative Humidity: 60%

Winds: Southeast at 26 km/h or 14 knots.

Gust: 44 km/h or 24 knots.

Mean Sea level Pressure: 101.20 kilopascals.

Coded METAR:

LFBO 260800Z AUTO 13014G24KT 090V160 CAVOK 22/14 Q1012 NOSIG=